sensor_id;sensor_type;location;lat;lon;timestamp;pressure;altitude;pressure_sealevel;temperature;humidity
73564;BME280;61834;50.196;6.454;2022-07-15T00:02:17;96915.75;;;21.08;53.55
73564;BME280;61834;50.196;6.454;2022-07-15T00:04:43;96916.16;;;21.06;53.60
73564;BME280;61834;50.196;6.454;2022-07-15T00:07:08;96917.38;;;21.05;53.32
73564;BME280;61834;50.196;6.454;2022-07-15T00:09:34;96909.81;;;21.06;53.54
73564;BME280;61834;50.196;6.454;2022-07-15T00:12:18;96912.59;;;21.06;53.50
73564;BME280;61834;50.196;6.454;2022-07-15T00:14:43;96915.38;;;21.06;53.57
73564;BME280;61834;50.196;6.454;2022-07-15T00:17:09;96907.03;;;21.06;53.68
73564;BME280;61834;50.196;6.454;2022-07-15T00:19:35;96908.59;;;21.07;53.61
73564;BME280;61834;50.196;6.454;2022-07-15T00:22:01;96909.81;;;21.06;53.48
73564;BME280;61834;50.196;6.454;2022-07-15T00:24:28;96907.03;;;21.06;53.41
73564;BME280;61834;50.196;6.454;2022-07-15T00:26:53;96917.38;;;21.05;53.49
73564;BME280;61834;50.196;6.454;2022-07-15T00:29:19;96914.59;;;21.05;53.61
73564;BME280;61834;50.196;6.454;2022-07-15T00:31:44;96911.81;;;21.05;53.56
73564;BME280;61834;50.196;6.454;2022-07-15T00:34:10;96913.81;;;21.05;53.42
73564;BME280;61834;50.196;6.454;2022-07-15T00:36:35;96909.03;;;21.05;53.31
73564;BME280;61834;50.196;6.454;2022-07-15T00:39:01;96913.81;;;21.05;53.54
73564;BME280;61834;50.196;6.454;2022-07-15T00:41:26;96899.13;;;21.04;53.23
73564;BME280;61834;50.196;6.454;2022-07-15T00:43:52;96905.91;;;21.03;53.28
73564;BME280;61834;50.196;6.454;2022-07-15T00:46:18;96905.91;;;21.03;53.44
73564;BME280;61834;50.196;6.454;2022-07-15T00:48:44;96905.47;;;21.05;53.44
73564;BME280;61834;50.196;6.454;2022-07-15T00:51:10;96911.03;;;21.05;53.26
73564;BME280;61834;50.196;6.454;2022-07-15T00:53:38;96913.03;;;21.04;53.47
73564;BME280;61834;50.196;6.454;2022-07-15T00:56:07;96914.25;;;21.03;53.39
73564;BME280;61834;50.196;6.454;2022-07-15T00:58:37;96909.47;;;21.04;53.43
73564;BME280;61834;50.196;6.454;2022-07-15T01:01:03;96909.47;;;21.04;53.24
73564;BME280;61834;50.196;6.454;2022-07-15T01:03:31;96906.34;;;21.02;53.22
73564;BME280;61834;50.196;6.454;2022-07-15T01:05:58;96913.13;;;21.01;53.34
73564;BME280;61834;50.196;6.454;2022-07-15T01:08:24;96905.53;;;21.01;53.09
73564;BME280;61834;50.196;6.454;2022-07-15T01:10:50;96910.34;;;21.01;53.05
73564;BME280;61834;50.196;6.454;2022-07-15T01:13:17;96898.44;;;21.00;52.91
73564;BME280;61834;50.196;6.454;2022-07-15T01:15:43;96899.97;;;21.01;52.74
73564;BME280;61834;50.196;6.454;2022-07-15T01:18:10;96908.31;;;21.01;nan
73564;BME280;61834;50.196;6.454;2022-07-15T01:20:40;96907.22;;;20.99;52.57
73564;BME280;61834;50.196;6.454;2022-07-15T01:23:07;96906.00;;;21.00;52.88
73564;BME280;61834;50.196;6.454;2022-07-15T01:25:38;96903.22;;;21.00;52.79
73564;BME280;61834;50.196;6.454;2022-07-15T01:28:08;96907.66;;;20.97;52.69
73564;BME280;61834;50.196;6.454;2022-07-15T01:30:34;96908.44;;;20.98;52.69
73564;BME280;61834;50.196;6.454;2022-07-15T01:33:01;96907.66;;;20.97;52.73
73564;BME280;61834;50.196;6.454;2022-07-15T01:35:27;96905.28;;;20.96;52.72
73564;BME280;61834;50.196;6.454;2022-07-15T01:37:54;96912.41;;;20.97;52.91
73564;BME280;61834;50.196;6.454;2022-07-15T01:40:20;96910.84;;;20.96;52.49
73564;BME280;61834;50.196;6.454;2022-07-15T01:42:45;96914.41;;;20.96;52.73
73564;BME280;61834;50.196;6.454;2022-07-15T01:45:13;96915.19;;;20.97;52.61
73564;BME280;61834;50.196;6.454;2022-07-15T01:47:44;96917.19;;;20.96;52.65
73564;BME280;61834;50.196;6.454;2022-07-15T01:50:12;96906.50;;;20.95;52.37
73564;BME280;61834;50.196;6.454;2022-07-15T01:52:55;96911.28;;;20.94;52.39
73564;BME280;61834;50.196;6.454;2022-07-15T01:55:21;96909.28;;;20.95;52.52
73564;BME280;61834;50.196;6.454;2022-07-15T01:57:47;96906.94;;;20.93;52.34
73564;BME280;61834;50.196;6.454;2022-07-15T02:00:13;96900.16;;;20.94;52.35
73564;BME280;61834;50.196;6.454;2022-07-15T02:02:45;96902.16;;;20.94;52.41
73564;BME280;61834;50.196;6.454;2022-07-15T02:05:13;96912.50;;;20.93;52.33
73564;BME280;61834;50.196;6.454;2022-07-15T02:07:39;96912.50;;;20.93;52.33
73564;BME280;61834;50.196;6.454;2022-07-15T02:10:06;96914.53;;;20.93;51.93
73564;BME280;61834;50.196;6.454;2022-07-15T02:12:33;96903.03;;;20.91;52.04
73564;BME280;61834;50.196;6.454;2022-07-15T02:14:58;96917.41;;;20.89;51.71
73564;BME280;61834;50.196;6.454;2022-07-15T02:17:32;96917.41;;;20.89;51.66
73564;BME280;61834;50.196;6.454;2022-07-15T02:19:58;96918.50;;;20.92;51.80
73564;BME280;61834;50.196;6.454;2022-07-15T02:22:23;96918.16;;;20.90;52.01
73564;BME280;61834;50.196;6.454;2022-07-15T02:24:49;96918.94;;;20.90;51.88
73564;BME280;61834;50.196;6.454;2022-07-15T02:27:19;96918.16;;;20.90;51.90
73564;BME280;61834;50.196;6.454;2022-07-15T02:29:46;96924.16;;;20.88;51.80
73564;BME280;61834;50.196;6.454;2022-07-15T02:32:13;96922.16;;;20.89;51.79
73564;BME280;61834;50.196;6.454;2022-07-15T02:34:41;96919.81;;;20.87;51.75
73564;BME280;61834;50.196;6.454;2022-07-15T02:37:06;96931.41;;;20.86;51.79
73564;BME280;61834;50.196;6.454;2022-07-15T02:39:32;96936.19;;;20.85;51.89
73564;BME280;61834;50.196;6.454;2022-07-15T02:41:57;96942.97;;;20.84;51.75
73564;BME280;61834;50.196;6.454;2022-07-15T02:44:23;96933.03;;;20.83;51.53
73564;BME280;61834;50.196;6.454;2022-07-15T02:46:49;96931.03;;;20.84;51.36
73564;BME280;61834;50.196;6.454;2022-07-15T02:49:20;96939.84;;;20.82;51.23
73564;BME280;61834;50.196;6.454;2022-07-15T02:51:46;96942.25;;;20.80;51.34
73564;BME280;61834;50.196;6.454;2022-07-15T02:54:12;96948.19;;;20.82;51.16
73564;BME280;61834;50.196;6.454;2022-07-15T02:56:39;96951.06;;;20.79;51.17
73564;BME280;61834;50.196;6.454;2022-07-15T02:59:04;96955.38;;;20.80;51.05
73564;BME280;61834;50.196;6.454;2022-07-15T03:01:30;96951.06;;;20.79;51.19
73564;BME280;61834;50.196;6.454;2022-07-15T03:03:58;96961.41;;;20.78;50.92
73564;BME280;61834;50.196;6.454;2022-07-15T03:06:25;96968.97;;;20.78;51.12
73564;BME280;61834;50.196;6.454;2022-07-15T03:08:50;96964.63;;;20.77;50.69
73564;BME280;61834;50.196;6.454;2022-07-15T03:11:18;96967.84;;;20.75;50.72
73564;BME280;61834;50.196;6.454;2022-07-15T03:13:44;96967.84;;;20.75;50.46
73564;BME280;61834;50.196;6.454;2022-07-15T03:16:10;96968.28;;;20.74;50.75
73564;BME280;61834;50.196;6.454;2022-07-15T03:18:37;96976.63;;;20.74;50.49
73564;BME280;61834;50.196;6.454;2022-07-15T03:21:03;96976.63;;;20.74;50.62
73564;BME280;61834;50.196;6.454;2022-07-15T03:23:29;96973.03;;;20.73;50.56
73564;BME280;61834;50.196;6.454;2022-07-15T03:25:55;96986.19;;;20.73;50.44
73564;BME280;61834;50.196;6.454;2022-07-15T03:28:20;96981.03;;;20.71;50.13
73564;BME280;61834;50.196;6.454;2022-07-15T03:30:47;96983.06;;;20.71;50.35
73564;BME280;61834;50.196;6.454;2022-07-15T03:33:14;96985.06;;;20.70;50.02
73564;BME280;61834;50.196;6.454;2022-07-15T03:35:41;96983.50;;;20.69;50.17
73564;BME280;61834;50.196;6.454;2022-07-15T03:38:08;96986.59;;;20.71;50.28
73564;BME280;61834;50.196;6.454;2022-07-15T03:40:35;96986.72;;;20.68;50.06
73564;BME280;61834;50.196;6.454;2022-07-15T03:43:00;96991.50;;;20.67;49.86
73564;BME280;61834;50.196;6.454;2022-07-15T03:45:27;96999.06;;;20.67;49.91
73564;BME280;61834;50.196;6.454;2022-07-15T03:47:53;97000.63;;;20.68;50.02
73564;BME280;61834;50.196;6.454;2022-07-15T03:50:19;96993.91;;;20.65;49.83
73564;BME280;61834;50.196;6.454;2022-07-15T03:52:44;96993.91;;;20.65;49.83
73564;BME280;61834;50.196;6.454;2022-07-15T03:55:10;96995.16;;;20.64;49.63
73564;BME280;61834;50.196;6.454;2022-07-15T03:57:37;96993.56;;;20.63;49.57
73564;BME280;61834;50.196;6.454;2022-07-15T04:00:03;96992.81;;;20.63;49.56
73564;BME280;61834;50.196;6.454;2022-07-15T04:02:40;97000.78;;;20.61;49.57
73564;BME280;61834;50.196;6.454;2022-07-15T04:05:06;97003.56;;;20.61;49.21
73564;BME280;61834;50.196;6.454;2022-07-15T04:07:32;97008.34;;;20.60;49.41
73564;BME280;61834;50.196;6.454;2022-07-15T04:09:57;97002.78;;;20.60;49.12
73564;BME280;61834;50.196;6.454;2022-07-15T04:12:22;97007.22;;;20.58;48.94
73564;BME280;61834;50.196;6.454;2022-07-15T04:14:48;97001.66;;;20.58;49.08
73564;BME280;61834;50.196;6.454;2022-07-15T04:17:15;97008.44;;;20.57;49.22
73564;BME280;61834;50.196;6.454;2022-07-15T04:19:41;97009.22;;;20.57;48.76
73564;BME280;61834;50.196;6.454;2022-07-15T04:22:06;97008.44;;;20.57;49.28
73564;BME280;61834;50.196;6.454;2022-07-15T04:24:39;97008.44;;;20.57;48.97
73564;BME280;61834;50.196;6.454;2022-07-15T04:27:08;97005.28;;;20.55;48.82
73564;BME280;61834;50.196;6.454;2022-07-15T04:29:34;97006.53;;;20.54;48.97
73564;BME280;61834;50.196;6.454;2022-07-15T04:32:02;97000.97;;;20.54;48.83
73564;BME280;61834;50.196;6.454;2022-07-15T04:34:32;97008.88;;;20.55;48.88
73564;BME280;61834;50.196;6.454;2022-07-15T04:36:58;97009.66;;;20.56;48.64
73564;BME280;61834;50.196;6.454;2022-07-15T04:39:23;97002.19;;;20.53;48.82
73564;BME280;61834;50.196;6.454;2022-07-15T04:41:51;97002.19;;;20.53;48.97
73564;BME280;61834;50.196;6.454;2022-07-15T04:44:17;96999.84;;;20.51;48.75
73564;BME280;61834;50.196;6.454;2022-07-15T04:46:43;96999.03;;;20.51;48.68
73564;BME280;61834;50.196;6.454;2022-07-15T04:49:29;97007.41;;;20.51;48.66
73564;BME280;61834;50.196;6.454;2022-07-15T04:52:15;97014.50;;;20.52;48.58
73564;BME280;61834;50.196;6.454;2022-07-15T04:54:43;97010.59;;;20.49;48.34
73564;BME280;61834;50.196;6.454;2022-07-15T04:57:09;97022.50;;;20.50;48.44
73564;BME280;61834;50.196;6.454;2022-07-15T04:59:35;97022.50;;;20.50;48.47
73564;BME280;61834;50.196;6.454;2022-07-15T05:02:01;97027.31;;;20.49;48.49
73564;BME280;61834;50.196;6.454;2022-07-15T05:04:34;97024.53;;;20.49;48.69
73564;BME280;61834;50.196;6.454;2022-07-15T05:07:00;97028.50;;;20.48;48.59
73564;BME280;61834;50.196;6.454;2022-07-15T05:09:30;97026.94;;;20.47;48.85
73564;BME280;61834;50.196;6.454;2022-07-15T05:11:55;97022.94;;;20.48;48.76
73564;BME280;61834;50.196;6.454;2022-07-15T05:14:20;97018.59;;;20.47;48.80
73564;BME280;61834;50.196;6.454;2022-07-15T05:16:46;97028.16;;;20.46;48.49
73564;BME280;61834;50.196;6.454;2022-07-15T05:19:12;97024.16;;;20.47;48.67
73564;BME280;61834;50.196;6.454;2022-07-15T05:21:37;97026.16;;;20.47;48.62
73564;BME280;61834;50.196;6.454;2022-07-15T05:24:03;97032.88;;;20.49;48.61
73564;BME280;61834;50.196;6.454;2022-07-15T05:26:30;97036.09;;;20.48;48.34
73564;BME280;61834;50.196;6.454;2022-07-15T05:28:55;97035.66;;;20.49;48.79
73564;BME280;61834;50.196;6.454;2022-07-15T05:31:21;97022.94;;;20.48;48.84
73564;BME280;61834;50.196;6.454;2022-07-15T05:33:48;97022.94;;;20.48;48.70
73564;BME280;61834;50.196;6.454;2022-07-15T05:36:14;97020.94;;;20.49;48.81
73564;BME280;61834;50.196;6.454;2022-07-15T05:38:42;97025.72;;;20.48;49.20
73564;BME280;61834;50.196;6.454;2022-07-15T05:41:08;97015.38;;;20.49;48.82
73564;BME280;61834;50.196;6.454;2022-07-15T05:43:37;97014.59;;;20.48;49.08
73564;BME280;61834;50.196;6.454;2022-07-15T05:46:03;97016.19;;;20.49;49.13
73564;BME280;61834;50.196;6.454;2022-07-15T05:48:32;97015.38;;;20.49;49.41
73564;BME280;61834;50.196;6.454;2022-07-15T05:50:58;97021.75;;;20.49;49.42
73564;BME280;61834;50.196;6.454;2022-07-15T05:53:25;97022.50;;;20.50;49.46
73564;BME280;61834;50.196;6.454;2022-07-15T05:55:50;97026.50;;;20.49;49.58
73564;BME280;61834;50.196;6.454;2022-07-15T05:58:19;97025.28;;;20.50;49.73
73564;BME280;61834;50.196;6.454;2022-07-15T06:00:45;97022.09;;;20.51;49.58
73564;BME280;61834;50.196;6.454;2022-07-15T06:03:11;97016.09;;;20.53;49.72
73564;BME280;61834;50.196;6.454;2022-07-15T06:05:40;97016.53;;;20.51;49.90
73564;BME280;61834;50.196;6.454;2022-07-15T06:08:05;97006.97;;;20.52;49.89
73564;BME280;61834;50.196;6.454;2022-07-15T06:10:36;97015.75;;;20.51;49.99
73564;BME280;61834;50.196;6.454;2022-07-15T06:13:02;97018.88;;;20.53;50.32
73564;BME280;61834;50.196;6.454;2022-07-15T06:15:28;97021.22;;;20.54;50.10
73564;BME280;61834;50.196;6.454;2022-07-15T06:17:56;97019.19;;;20.55;49.99
73564;BME280;61834;50.196;6.454;2022-07-15T06:20:23;97024.00;;;20.54;50.05
73564;BME280;61834;50.196;6.454;2022-07-15T06:22:49;97027.53;;;20.55;50.12
73564;BME280;61834;50.196;6.454;2022-07-15T06:25:16;97027.53;;;20.55;50.45
73564;BME280;61834;50.196;6.454;2022-07-15T06:27:43;97035.91;;;20.55;50.63
73564;BME280;61834;50.196;6.454;2022-07-15T06:30:09;97034.69;;;20.56;50.68
73564;BME280;61834;50.196;6.454;2022-07-15T06:32:35;97034.25;;;20.57;50.67
73564;BME280;61834;50.196;6.454;2022-07-15T06:35:00;97033.91;;;20.55;50.78
73564;BME280;61834;50.196;6.454;2022-07-15T06:37:26;97043.41;;;20.58;50.82
73564;BME280;61834;50.196;6.454;2022-07-15T06:39:53;97033.91;;;20.55;50.91
73564;BME280;61834;50.196;6.454;2022-07-15T06:42:20;97031.91;;;20.56;50.64
73564;BME280;61834;50.196;6.454;2022-07-15T06:44:58;97037.03;;;20.57;50.92
73564;BME280;61834;50.196;6.454;2022-07-15T06:47:24;97031.03;;;20.59;50.82
73564;BME280;61834;50.196;6.454;2022-07-15T06:49:50;97031.03;;;20.59;50.87
73564;BME280;61834;50.196;6.454;2022-07-15T06:52:16;97030.59;;;20.60;50.88
73564;BME280;61834;50.196;6.454;2022-07-15T06:54:42;97028.63;;;20.61;50.76
73564;BME280;61834;50.196;6.454;2022-07-15T06:57:08;97028.97;;;20.63;50.94
73564;BME280;61834;50.196;6.454;2022-07-15T06:59:34;97025.41;;;20.62;50.85
73564;BME280;61834;50.196;6.454;2022-07-15T07:02:00;97026.19;;;20.63;51.04
73564;BME280;61834;50.196;6.454;2022-07-15T07:04:25;97027.75;;;20.64;51.02
73564;BME280;61834;50.196;6.454;2022-07-15T07:06:51;97030.53;;;20.64;51.03
73564;BME280;61834;50.196;6.454;2022-07-15T07:09:17;97030.88;;;20.66;51.16
73564;BME280;61834;50.196;6.454;2022-07-15T07:11:42;97027.31;;;20.65;51.19
73564;BME280;61834;50.196;6.454;2022-07-15T07:14:07;97028.88;;;20.66;51.14
73564;BME280;61834;50.196;6.454;2022-07-15T07:16:33;97028.09;;;20.66;51.04
73564;BME280;61834;50.196;6.454;2022-07-15T07:18:59;97031.66;;;20.66;51.18
73564;BME280;61834;50.196;6.454;2022-07-15T07:21:25;97029.66;;;20.67;51.17
73564;BME280;61834;50.196;6.454;2022-07-15T07:23:50;97026.44;;;20.68;51.36
73564;BME280;61834;50.196;6.454;2022-07-15T07:26:16;97028.03;;;20.69;51.04
73564;BME280;61834;50.196;6.454;2022-07-15T07:28:42;97027.59;;;20.71;51.25
73564;BME280;61834;50.196;6.454;2022-07-15T07:31:11;97024.00;;;20.70;51.21
73564;BME280;61834;50.196;6.454;2022-07-15T07:33:37;97029.13;;;20.72;51.29
73564;BME280;61834;50.196;6.454;2022-07-15T07:36:04;97031.47;;;20.73;51.24
73564;BME280;61834;50.196;6.454;2022-07-15T07:38:31;97023.94;;;20.74;51.23
73564;BME280;61834;50.196;6.454;2022-07-15T07:40:57;97024.72;;;20.74;51.16
73564;BME280;61834;50.196;6.454;2022-07-15T07:43:22;97025.47;;;20.75;51.26
73564;BME280;61834;50.196;6.454;2022-07-15T07:45:48;97029.06;;;20.75;51.35
73564;BME280;61834;50.196;6.454;2022-07-15T07:48:13;97029.50;;;20.74;51.34
73564;BME280;61834;50.196;6.454;2022-07-15T07:50:39;97035.06;;;20.74;51.31
73564;BME280;61834;50.196;6.454;2022-07-15T07:53:05;97039.06;;;20.73;51.54
73564;BME280;61834;50.196;6.454;2022-07-15T07:55:30;97034.28;;;20.73;51.37
73564;BME280;61834;50.196;6.454;2022-07-15T07:57:57;97035.41;;;20.76;51.28
73564;BME280;61834;50.196;6.454;2022-07-15T08:00:25;97031.47;;;20.73;51.14
73564;BME280;61834;50.196;6.454;2022-07-15T08:02:52;97031.84;;;20.75;51.46
73564;BME280;61834;50.196;6.454;2022-07-15T08:05:18;97021.06;;;20.77;51.31
73564;BME280;61834;50.196;6.454;2022-07-15T08:07:43;97021.84;;;20.78;51.39
73564;BME280;61834;50.196;6.454;2022-07-15T08:10:10;97025.41;;;20.78;51.04
73564;BME280;61834;50.196;6.454;2022-07-15T08:12:36;97027.75;;;20.80;51.17
73564;BME280;61834;50.196;6.454;2022-07-15T08:15:04;97035.78;;;20.78;51.27
73564;BME280;61834;50.196;6.454;2022-07-15T08:17:30;97028.63;;;20.77;51.39
73564;BME280;61834;50.196;6.454;2022-07-15T08:19:56;97038.13;;;20.79;51.43
73564;BME280;61834;50.196;6.454;2022-07-15T08:22:21;97034.97;;;20.77;51.54
73564;BME280;61834;50.196;6.454;2022-07-15T08:24:47;97035.41;;;20.76;51.39
73564;BME280;61834;50.196;6.454;2022-07-15T08:27:15;97039.06;;;20.73;51.33
73564;BME280;61834;50.196;6.454;2022-07-15T08:29:40;97037.84;;;20.74;51.31
73564;BME280;61834;50.196;6.454;2022-07-15T08:32:06;97050.19;;;20.73;51.34
73564;BME280;61834;50.196;6.454;2022-07-15T08:34:31;97042.63;;;20.73;51.49
73564;BME280;61834;50.196;6.454;2022-07-15T08:36:56;97042.63;;;20.73;51.13
73564;BME280;61834;50.196;6.454;2022-07-15T08:39:22;97038.28;;;20.72;51.21
73564;BME280;61834;50.196;6.454;2022-07-15T08:41:48;97048.19;;;20.73;51.45
73564;BME280;61834;50.196;6.454;2022-07-15T08:44:14;97042.63;;;20.73;51.41
73564;BME280;61834;50.196;6.454;2022-07-15T08:46:41;97037.41;;;20.75;51.32
73564;BME280;61834;50.196;6.454;2022-07-15T08:49:16;97031.41;;;20.77;51.30
73564;BME280;61834;50.196;6.454;2022-07-15T08:51:44;97038.56;;;20.78;51.07
73564;BME280;61834;50.196;6.454;2022-07-15T08:54:11;97038.56;;;20.78;51.01
73564;BME280;61834;50.196;6.454;2022-07-15T08:56:37;97030.97;;;20.78;51.10
73564;BME280;61834;50.196;6.454;2022-07-15T08:59:04;97030.53;;;20.80;51.09
73564;BME280;61834;50.196;6.454;2022-07-15T09:01:31;97037.69;;;20.81;51.05
73564;BME280;61834;50.196;6.454;2022-07-15T09:03:57;97037.25;;;20.82;51.10
73564;BME280;61834;50.196;6.454;2022-07-15T09:06:37;97031.69;;;20.82;51.00
73564;BME280;61834;50.196;6.454;2022-07-15T09:11:43;97022.09;;;20.83;51.13
73564;BME280;61834;50.196;6.454;2022-07-15T09:14:18;97028.91;;;20.82;51.20
73564;BME280;61834;50.196;6.454;2022-07-15T09:16:44;97030.53;;;20.80;51.28
73564;BME280;61834;50.196;6.454;2022-07-15T09:19:10;97022.53;;;20.82;51.21
73564;BME280;61834;50.196;6.454;2022-07-15T09:21:36;97025.69;;;20.84;51.18
73564;BME280;61834;50.196;6.454;2022-07-15T09:24:18;97024.88;;;20.83;51.34
73564;BME280;61834;50.196;6.454;2022-07-15T09:26:43;97018.13;;;20.84;51.31
73564;BME280;61834;50.196;6.454;2022-07-15T09:29:09;97017.31;;;20.84;51.17
73564;BME280;61834;50.196;6.454;2022-07-15T09:31:58;97016.09;;;20.85;51.26
73564;BME280;61834;50.196;6.454;2022-07-15T09:35:00;97017.69;;;20.86;51.10
73564;BME280;61834;50.196;6.454;2022-07-15T09:37:26;97020.91;;;20.84;51.17
73564;BME280;61834;50.196;6.454;2022-07-15T09:39:56;97013.66;;;20.87;51.08
73564;BME280;61834;50.196;6.454;2022-07-15T09:42:23;97023.59;;;20.88;51.17
73564;BME280;61834;50.196;6.454;2022-07-15T09:44:49;97020.09;;;20.84;51.00
73564;BME280;61834;50.196;6.454;2022-07-15T09:47:19;97024.13;;;20.83;51.25
73564;BME280;61834;50.196;6.454;2022-07-15T09:49:48;97026.13;;;20.82;50.91
73564;BME280;61834;50.196;6.454;2022-07-15T09:52:14;97031.31;;;20.80;51.05
73564;BME280;61834;50.196;6.454;2022-07-15T09:54:44;97034.09;;;20.80;50.98
73564;BME280;61834;50.196;6.454;2022-07-15T09:57:12;97031.69;;;20.82;50.77
73564;BME280;61834;50.196;6.454;2022-07-15T09:59:43;97025.69;;;20.84;50.81
73564;BME280;61834;50.196;6.454;2022-07-15T10:02:09;97023.69;;;20.84;50.56
73564;BME280;61834;50.196;6.454;2022-07-15T10:04:35;97031.59;;;20.86;50.78
73564;BME280;61834;50.196;6.454;2022-07-15T10:07:02;97022.81;;;20.87;50.66
73564;BME280;61834;50.196;6.454;2022-07-15T10:09:31;97023.25;;;20.86;50.54
73564;BME280;61834;50.196;6.454;2022-07-15T10:12:02;97018.13;;;20.84;50.73
73564;BME280;61834;50.196;6.454;2022-07-15T10:23:07;97009.25;;;20.89;50.26
73564;BME280;61834;50.196;6.454;2022-07-15T10:25:52;97005.22;;;20.90;50.28
73564;BME280;61834;50.196;6.454;2022-07-15T10:33:42;97002.19;;;20.85;50.45
73564;BME280;61834;50.196;6.454;2022-07-15T10:36:08;97006.19;;;20.84;50.44
73564;BME280;61834;50.196;6.454;2022-07-15T10:38:36;97001.41;;;20.84;50.59
73564;BME280;61834;50.196;6.454;2022-07-15T10:43:38;97003.69;;;20.89;50.32
73564;BME280;61834;50.196;6.454;2022-07-15T10:46:04;97010.81;;;20.90;50.30
73564;BME280;61834;50.196;6.454;2022-07-15T10:48:36;96999.66;;;20.90;50.26
73564;BME280;61834;50.196;6.454;2022-07-15T10:51:02;97006.47;;;20.89;50.10
73564;BME280;61834;50.196;6.454;2022-07-15T10:53:27;96999.22;;;20.92;50.32
73564;BME280;61834;50.196;6.454;2022-07-15T10:55:55;96987.75;;;20.90;50.30
73564;BME280;61834;50.196;6.454;2022-07-15T10:58:21;96984.19;;;20.89;50.41
73564;BME280;61834;50.196;6.454;2022-07-15T11:00:47;96993.22;;;20.93;50.12
73564;BME280;61834;50.196;6.454;2022-07-15T11:03:18;96985.16;;;20.99;49.77
73564;BME280;61834;50.196;6.454;2022-07-15T11:13:43;96980.88;;;20.94;50.10
73564;BME280;61834;50.196;6.454;2022-07-15T11:16:10;96987.50;;;21.00;49.81
73564;BME280;61834;50.196;6.454;2022-07-15T11:18:51;96976.56;;;21.09;49.78
73564;BME280;61834;50.196;6.454;2022-07-15T11:21:17;96976.38;;;21.00;49.81
73564;BME280;61834;50.196;6.454;2022-07-15T11:23:43;96984.78;;;20.97;50.27
73564;BME280;61834;50.196;6.454;2022-07-15T11:26:09;96980.03;;;20.97;49.74
73564;BME280;61834;50.196;6.454;2022-07-15T11:28:36;96975.63;;;20.96;49.79
73564;BME280;61834;50.196;6.454;2022-07-15T11:31:01;96980.09;;;20.94;50.00
73564;BME280;61834;50.196;6.454;2022-07-15T11:33:27;96981.72;;;20.91;50.14
73564;BME280;61834;50.196;6.454;2022-07-15T11:36:00;96984.09;;;20.93;50.31
73564;BME280;61834;50.196;6.454;2022-07-15T11:38:32;96974.88;;;20.96;50.07
73564;BME280;61834;50.196;6.454;2022-07-15T11:41:03;96975.63;;;20.96;49.96
73564;BME280;61834;50.196;6.454;2022-07-15T11:44:16;96971.25;;;20.99;50.03
73564;BME280;61834;50.196;6.454;2022-07-15T11:46:55;96969.69;;;20.98;50.01
73564;BME280;61834;50.196;6.454;2022-07-15T11:49:37;96971.25;;;20.99;49.98
73564;BME280;61834;50.196;6.454;2022-07-15T11:52:09;96967.69;;;20.98;49.74
73564;BME280;61834;50.196;6.454;2022-07-15T11:54:36;96964.00;;;21.01;50.17
73564;BME280;61834;50.196;6.454;2022-07-15T11:57:04;96964.00;;;21.01;49.93
73564;BME280;61834;50.196;6.454;2022-07-15T11:59:31;96958.19;;;20.96;49.83
73564;BME280;61834;50.196;6.454;2022-07-15T12:02:05;96972.97;;;20.93;50.23
73564;BME280;61834;50.196;6.454;2022-07-15T12:04:31;96964.94;;;20.95;49.99
73564;BME280;61834;50.196;6.454;2022-07-15T12:06:56;96968.59;;;20.92;50.28
73564;BME280;61834;50.196;6.454;2022-07-15T12:09:24;96974.19;;;20.92;50.29
73564;BME280;61834;50.196;6.454;2022-07-15T12:11:49;96969.50;;;20.89;50.24
73564;BME280;61834;50.196;6.454;2022-07-15T12:14:22;96969.41;;;20.92;49.99
73564;BME280;61834;50.196;6.454;2022-07-15T12:16:52;96975.63;;;20.96;49.96
73564;BME280;61834;50.196;6.454;2022-07-15T12:21:48;96969.56;;;21.01;49.92
73564;BME280;61834;50.196;6.454;2022-07-15T12:26:55;96959.31;;;20.98;50.21
73564;BME280;61834;50.196;6.454;2022-07-15T12:29:27;96957.03;;;20.93;50.10
73564;BME280;61834;50.196;6.454;2022-07-15T12:37:12;96970.19;;;20.93;50.13
73564;BME280;61834;50.196;6.454;2022-07-15T12:39:58;96966.13;;;20.97;49.93
73564;BME280;61834;50.196;6.454;2022-07-15T12:42:25;96965.25;;;21.00;50.15
73564;BME280;61834;50.196;6.454;2022-07-15T12:47:32;96962.47;;;21.00;50.26
73564;BME280;61834;50.196;6.454;2022-07-15T12:49:59;96960.47;;;21.01;50.13
73564;BME280;61834;50.196;6.454;2022-07-15T12:52:58;96953.66;;;21.02;49.95
73564;BME280;61834;50.196;6.454;2022-07-15T12:55:19;96966.38;;;21.03;49.54
73564;BME280;61834;50.196;6.454;2022-07-15T12:57:45;96966.38;;;21.03;49.18
73564;BME280;61834;50.196;6.454;2022-07-15T13:05:20;96964.50;;;20.96;49.50
73564;BME280;61834;50.196;6.454;2022-07-15T13:07:46;96951.03;;;20.95;49.67
73564;BME280;61834;50.196;6.454;2022-07-15T13:10:12;96947.03;;;20.96;49.63
73564;BME280;61834;50.196;6.454;2022-07-15T13:12:38;96954.16;;;20.97;49.75
73564;BME280;61834;50.196;6.454;2022-07-15T13:15:04;96954.53;;;20.99;50.02
73564;BME280;61834;50.196;6.454;2022-07-15T13:17:30;96941.31;;;21.03;49.34
73564;BME280;61834;50.196;6.454;2022-07-15T13:19:55;96946.47;;;21.04;49.36
73564;BME280;61834;50.196;6.454;2022-07-15T13:22:21;96946.09;;;21.02;49.36
73564;BME280;61834;50.196;6.454;2022-07-15T13:24:46;96955.56;;;21.05;49.41
73564;BME280;61834;50.196;6.454;2022-07-15T13:27:11;96946.00;;;21.06;49.49
73564;BME280;61834;50.196;6.454;2022-07-15T13:29:37;96946.78;;;21.06;49.37
73564;BME280;61834;50.196;6.454;2022-07-15T13:32:02;96943.22;;;21.06;49.33
73564;BME280;61834;50.196;6.454;2022-07-15T13:34:28;96938.00;;;21.08;49.35
73564;BME280;61834;50.196;6.454;2022-07-15T13:36:53;96942.78;;;21.07;49.41
73564;BME280;61834;50.196;6.454;2022-07-15T13:39:19;96947.91;;;21.09;49.66
73564;BME280;61834;50.196;6.454;2022-07-15T13:41:44;96949.47;;;21.10;50.14
73564;BME280;61834;50.196;6.454;2022-07-15T13:44:09;96948.25;;;21.11;49.65
73564;BME280;61834;50.196;6.454;2022-07-15T13:46:35;96942.69;;;21.11;49.70
73564;BME280;61834;50.196;6.454;2022-07-15T13:49:00;96940.69;;;21.11;49.52